메인 페이지
METAR-TAF:

METAR-TAF

공항 :

에드먼턴, 앨버타, 캐나다

위도: 53-18N, 경도: 113-35W, 고도: 715m

현재 날씨관측

예보는 58분 전, 04:00시(UTC)에 발표되었습니다.
서북서6kt
온도 10°C
습도 53%
기압 1021 hPa
시정: 32.2km
고도 6000ft 상공 구름 조금
고도 7500ft 상공 구름 많음
고도 10000ft 상공 구름 많음

METAR: CYEG 160400Z 30006KT 20SM FEW060 BKN075 BKN100 10/01 A3015 RMK SC2AC4AC1 SLP229

시각: 22:58 (04:58 UTC)

예보

예보는 2 시간 20분 전, 02:38시(UTC)에 발표되었습니다.
예보 대상 시간: 16일 03시부터 16일 24시까지 (UTC)
서북서8kt
시정: 10km
고도 6000ft 상공 구름 조금
고도 9000ft 상공 구름 많음
16일 1200시부터 (UTC)
5kt
시정: 10km
고도 8000ft 상공 구름 보통
16일 2100시부터 (UTC)
서북서10kt
시정: 10km
맑음

TAF: CYEG 160238Z 1603/1624 30008KT P6SM FEW060 BKN090 FM161200 26005KT P6SM SCT080 FM162100 29010KT P6SM SKC RMK NXT FCST BY 160600Z

4,000개 이상의 공항 관측 자료 및 예보 (METAR 및 TAF 보고).

지도상에서 검색 가능한 기상관측소가 노란 점과 빨간 점으로 표시되어 있습니다.

기상관측소 명을 보려면 표시 위로 마우스를 이동하세요.

날씨 관측과 예보를 보려면 클릭하세요.

지도 변경 : 확대하려면 엑스 표시가 있는 녹색 버튼, 축소하려면 빼기 표시가 있는 녹색 버튼, 다음 페이지의 지도를 보려면 녹색 화살표를 클릭하세요.


METAR-TAF: